sensor_id;sensor_type;location;lat;lon;timestamp;P1;durP1;ratioP1;P2;durP2;ratioP2
70838;SDS011;58464;52.298;4.852;2022-07-09T00:00:45;12.15;;;6.10;;
70838;SDS011;58464;52.298;4.852;2022-07-09T00:03:10;11.93;;;5.35;;
70838;SDS011;58464;52.298;4.852;2022-07-09T00:05:36;7.97;;;5.07;;
70838;SDS011;58464;52.298;4.852;2022-07-09T00:08:02;11.00;;;4.97;;
70838;SDS011;58464;52.298;4.852;2022-07-09T00:10:28;12.63;;;5.63;;
70838;SDS011;58464;52.298;4.852;2022-07-09T00:12:54;11.15;;;5.43;;
70838;SDS011;58464;52.298;4.852;2022-07-09T00:15:19;15.95;;;6.53;;
70838;SDS011;58464;52.298;4.852;2022-07-09T00:17:44;9.88;;;5.43;;
70838;SDS011;58464;52.298;4.852;2022-07-09T00:20:10;11.30;;;6.07;;
70838;SDS011;58464;52.298;4.852;2022-07-09T00:22:36;16.05;;;6.53;;
70838;SDS011;58464;52.298;4.852;2022-07-09T00:25:01;16.75;;;6.32;;
70838;SDS011;58464;52.298;4.852;2022-07-09T00:27:27;11.38;;;6.28;;
70838;SDS011;58464;52.298;4.852;2022-07-09T00:29:53;14.18;;;6.88;;
70838;SDS011;58464;52.298;4.852;2022-07-09T00:32:18;13.05;;;6.55;;
70838;SDS011;58464;52.298;4.852;2022-07-09T00:34:44;13.98;;;6.35;;
70838;SDS011;58464;52.298;4.852;2022-07-09T00:37:10;10.20;;;6.53;;
70838;SDS011;58464;52.298;4.852;2022-07-09T00:39:36;10.23;;;5.90;;
70838;SDS011;58464;52.298;4.852;2022-07-09T00:42:06;14.48;;;6.47;;
70838;SDS011;58464;52.298;4.852;2022-07-09T00:44:33;9.63;;;5.57;;
70838;SDS011;58464;52.298;4.852;2022-07-09T00:46:59;11.95;;;6.18;;
70838;SDS011;58464;52.298;4.852;2022-07-09T00:49:25;13.77;;;6.70;;
70838;SDS011;58464;52.298;4.852;2022-07-09T00:51:53;12.80;;;5.93;;
70838;SDS011;58464;52.298;4.852;2022-07-09T00:54:19;12.20;;;4.93;;
70838;SDS011;58464;52.298;4.852;2022-07-09T00:56:46;9.65;;;5.53;;
70838;SDS011;58464;52.298;4.852;2022-07-09T00:59:11;10.70;;;5.82;;
70838;SDS011;58464;52.298;4.852;2022-07-09T01:01:38;11.73;;;6.18;;
70838;SDS011;58464;52.298;4.852;2022-07-09T01:04:06;11.10;;;5.47;;
70838;SDS011;58464;52.298;4.852;2022-07-09T01:06:32;13.10;;;6.03;;
70838;SDS011;58464;52.298;4.852;2022-07-09T01:08:59;13.63;;;6.53;;
70838;SDS011;58464;52.298;4.852;2022-07-09T01:11:26;11.57;;;6.40;;
70838;SDS011;58464;52.298;4.852;2022-07-09T01:13:51;14.80;;;6.53;;
70838;SDS011;58464;52.298;4.852;2022-07-09T01:16:17;14.70;;;6.70;;
70838;SDS011;58464;52.298;4.852;2022-07-09T01:18:43;11.63;;;6.40;;
70838;SDS011;58464;52.298;4.852;2022-07-09T01:21:10;10.15;;;5.80;;
70838;SDS011;58464;52.298;4.852;2022-07-09T01:23:35;12.32;;;6.65;;
70838;SDS011;58464;52.298;4.852;2022-07-09T01:26:01;11.50;;;6.07;;
70838;SDS011;58464;52.298;4.852;2022-07-09T01:28:26;11.05;;;6.13;;
70838;SDS011;58464;52.298;4.852;2022-07-09T01:30:52;10.25;;;6.25;;
70838;SDS011;58464;52.298;4.852;2022-07-09T01:33:17;12.68;;;7.07;;
70838;SDS011;58464;52.298;4.852;2022-07-09T01:35:43;14.38;;;5.55;;
70838;SDS011;58464;52.298;4.852;2022-07-09T01:38:08;11.15;;;6.60;;
70838;SDS011;58464;52.298;4.852;2022-07-09T01:40:33;8.80;;;6.07;;
70838;SDS011;58464;52.298;4.852;2022-07-09T01:42:59;14.35;;;6.32;;
70838;SDS011;58464;52.298;4.852;2022-07-09T01:45:24;17.27;;;6.95;;
70838;SDS011;58464;52.298;4.852;2022-07-09T01:47:50;13.98;;;5.90;;
70838;SDS011;58464;52.298;4.852;2022-07-09T01:50:15;14.82;;;6.53;;
70838;SDS011;58464;52.298;4.852;2022-07-09T01:52:41;12.30;;;5.70;;
70838;SDS011;58464;52.298;4.852;2022-07-09T01:55:06;12.18;;;6.30;;
70838;SDS011;58464;52.298;4.852;2022-07-09T01:57:32;10.73;;;6.18;;
70838;SDS011;58464;52.298;4.852;2022-07-09T01:59:57;15.70;;;5.95;;
70838;SDS011;58464;52.298;4.852;2022-07-09T02:02:23;11.18;;;5.95;;
70838;SDS011;58464;52.298;4.852;2022-07-09T02:04:48;11.00;;;5.90;;
70838;SDS011;58464;52.298;4.852;2022-07-09T02:07:14;12.10;;;5.38;;
70838;SDS011;58464;52.298;4.852;2022-07-09T02:09:39;12.30;;;6.07;;
70838;SDS011;58464;52.298;4.852;2022-07-09T02:12:05;8.73;;;5.07;;
70838;SDS011;58464;52.298;4.852;2022-07-09T02:14:31;8.50;;;4.90;;
70838;SDS011;58464;52.298;4.852;2022-07-09T02:16:57;5.68;;;3.97;;
70838;SDS011;58464;52.298;4.852;2022-07-09T02:19:23;10.18;;;5.95;;
70838;SDS011;58464;52.298;4.852;2022-07-09T02:21:48;9.07;;;5.18;;
70838;SDS011;58464;52.298;4.852;2022-07-09T02:24:14;6.93;;;4.60;;
70838;SDS011;58464;52.298;4.852;2022-07-09T02:26:40;13.75;;;5.68;;
70838;SDS011;58464;52.298;4.852;2022-07-09T02:29:09;11.25;;;5.55;;
70838;SDS011;58464;52.298;4.852;2022-07-09T02:31:34;9.48;;;5.03;;
70838;SDS011;58464;52.298;4.852;2022-07-09T02:34:00;12.82;;;5.22;;
70838;SDS011;58464;52.298;4.852;2022-07-09T02:36:27;11.57;;;5.63;;
70838;SDS011;58464;52.298;4.852;2022-07-09T02:38:52;9.38;;;5.97;;
70838;SDS011;58464;52.298;4.852;2022-07-09T02:41:19;9.55;;;5.85;;
70838;SDS011;58464;52.298;4.852;2022-07-09T02:43:45;9.50;;;6.22;;
70838;SDS011;58464;52.298;4.852;2022-07-09T02:46:11;9.70;;;5.57;;
70838;SDS011;58464;52.298;4.852;2022-07-09T02:48:40;12.88;;;5.07;;
70838;SDS011;58464;52.298;4.852;2022-07-09T02:51:05;12.82;;;5.13;;
70838;SDS011;58464;52.298;4.852;2022-07-09T02:53:31;13.50;;;6.10;;
70838;SDS011;58464;52.298;4.852;2022-07-09T02:55:56;11.02;;;6.07;;
70838;SDS011;58464;52.298;4.852;2022-07-09T02:58:23;15.75;;;6.75;;
70838;SDS011;58464;52.298;4.852;2022-07-09T03:00:48;13.23;;;6.90;;
70838;SDS011;58464;52.298;4.852;2022-07-09T03:03:14;8.18;;;6.13;;
70838;SDS011;58464;52.298;4.852;2022-07-09T03:05:39;10.90;;;6.35;;
70838;SDS011;58464;52.298;4.852;2022-07-09T03:08:05;11.73;;;5.85;;
70838;SDS011;58464;52.298;4.852;2022-07-09T03:10:31;12.35;;;6.45;;
70838;SDS011;58464;52.298;4.852;2022-07-09T03:12:57;10.85;;;6.00;;
70838;SDS011;58464;52.298;4.852;2022-07-09T03:15:22;8.68;;;5.85;;
70838;SDS011;58464;52.298;4.852;2022-07-09T03:17:48;11.20;;;5.53;;
70838;SDS011;58464;52.298;4.852;2022-07-09T03:20:14;10.10;;;5.43;;
70838;SDS011;58464;52.298;4.852;2022-07-09T03:22:40;8.57;;;5.15;;
70838;SDS011;58464;52.298;4.852;2022-07-09T03:25:06;14.07;;;5.65;;
70838;SDS011;58464;52.298;4.852;2022-07-09T03:27:32;10.05;;;5.47;;
70838;SDS011;58464;52.298;4.852;2022-07-09T03:29:59;12.68;;;5.13;;
70838;SDS011;58464;52.298;4.852;2022-07-09T03:32:25;9.38;;;5.68;;
70838;SDS011;58464;52.298;4.852;2022-07-09T03:34:51;10.93;;;5.70;;
70838;SDS011;58464;52.298;4.852;2022-07-09T03:37:19;10.75;;;4.72;;
70838;SDS011;58464;52.298;4.852;2022-07-09T03:39:45;10.63;;;5.40;;
70838;SDS011;58464;52.298;4.852;2022-07-09T03:42:11;8.38;;;5.18;;
70838;SDS011;58464;52.298;4.852;2022-07-09T03:44:37;6.57;;;4.20;;
70838;SDS011;58464;52.298;4.852;2022-07-09T03:47:03;6.38;;;4.30;;
70838;SDS011;58464;52.298;4.852;2022-07-09T03:49:29;6.32;;;4.15;;
70838;SDS011;58464;52.298;4.852;2022-07-09T03:51:54;8.55;;;4.13;;
70838;SDS011;58464;52.298;4.852;2022-07-09T03:54:19;9.02;;;3.55;;
70838;SDS011;58464;52.298;4.852;2022-07-09T03:56:45;8.02;;;3.63;;
70838;SDS011;58464;52.298;4.852;2022-07-09T03:59:10;5.07;;;2.85;;
70838;SDS011;58464;52.298;4.852;2022-07-09T04:01:36;5.88;;;2.92;;
70838;SDS011;58464;52.298;4.852;2022-07-09T04:04:02;5.38;;;2.67;;
70838;SDS011;58464;52.298;4.852;2022-07-09T04:06:28;5.28;;;2.72;;
70838;SDS011;58464;52.298;4.852;2022-07-09T04:08:54;5.55;;;3.00;;
70838;SDS011;58464;52.298;4.852;2022-07-09T04:11:20;6.28;;;3.10;;
70838;SDS011;58464;52.298;4.852;2022-07-09T04:13:45;7.00;;;2.80;;
70838;SDS011;58464;52.298;4.852;2022-07-09T04:16:11;4.63;;;2.38;;
70838;SDS011;58464;52.298;4.852;2022-07-09T04:18:36;4.97;;;2.40;;
70838;SDS011;58464;52.298;4.852;2022-07-09T04:21:01;8.05;;;2.70;;
70838;SDS011;58464;52.298;4.852;2022-07-09T04:23:27;7.07;;;2.88;;
70838;SDS011;58464;52.298;4.852;2022-07-09T04:25:52;6.03;;;2.45;;
70838;SDS011;58464;52.298;4.852;2022-07-09T04:28:18;6.57;;;2.63;;
70838;SDS011;58464;52.298;4.852;2022-07-09T04:30:45;5.55;;;2.60;;
70838;SDS011;58464;52.298;4.852;2022-07-09T04:33:11;5.28;;;2.33;;
70838;SDS011;58464;52.298;4.852;2022-07-09T04:35:36;7.07;;;2.45;;
70838;SDS011;58464;52.298;4.852;2022-07-09T04:38:02;5.28;;;2.35;;
70838;SDS011;58464;52.298;4.852;2022-07-09T04:40:28;6.72;;;2.67;;
70838;SDS011;58464;52.298;4.852;2022-07-09T04:42:53;3.17;;;1.92;;
70838;SDS011;58464;52.298;4.852;2022-07-09T04:45:19;3.35;;;2.00;;
70838;SDS011;58464;52.298;4.852;2022-07-09T04:47:44;7.75;;;2.88;;
70838;SDS011;58464;52.298;4.852;2022-07-09T04:50:09;4.75;;;2.47;;
70838;SDS011;58464;52.298;4.852;2022-07-09T04:52:36;5.35;;;2.95;;
70838;SDS011;58464;52.298;4.852;2022-07-09T04:55:02;5.38;;;2.25;;
70838;SDS011;58464;52.298;4.852;2022-07-09T04:57:28;4.97;;;2.65;;
70838;SDS011;58464;52.298;4.852;2022-07-09T04:59:57;5.57;;;2.85;;
70838;SDS011;58464;52.298;4.852;2022-07-09T05:02:25;3.78;;;2.63;;
70838;SDS011;58464;52.298;4.852;2022-07-09T05:04:51;5.85;;;2.17;;
70838;SDS011;58464;52.298;4.852;2022-07-09T05:07:17;5.15;;;2.53;;
70838;SDS011;58464;52.298;4.852;2022-07-09T05:09:42;6.82;;;3.33;;
70838;SDS011;58464;52.298;4.852;2022-07-09T05:12:07;5.63;;;2.60;;
70838;SDS011;58464;52.298;4.852;2022-07-09T05:14:35;8.73;;;3.28;;
70838;SDS011;58464;52.298;4.852;2022-07-09T05:17:01;7.50;;;2.58;;
70838;SDS011;58464;52.298;4.852;2022-07-09T05:19:26;4.90;;;2.75;;
70838;SDS011;58464;52.298;4.852;2022-07-09T05:21:52;5.22;;;3.00;;
70838;SDS011;58464;52.298;4.852;2022-07-09T05:24:18;5.05;;;3.55;;
70838;SDS011;58464;52.298;4.852;2022-07-09T05:26:44;5.35;;;3.25;;
70838;SDS011;58464;52.298;4.852;2022-07-09T05:29:10;6.28;;;2.88;;
70838;SDS011;58464;52.298;4.852;2022-07-09T05:31:38;5.07;;;3.40;;
70838;SDS011;58464;52.298;4.852;2022-07-09T05:34:04;5.10;;;3.40;;
70838;SDS011;58464;52.298;4.852;2022-07-09T05:36:30;6.03;;;3.67;;
70838;SDS011;58464;52.298;4.852;2022-07-09T05:38:56;7.22;;;3.80;;
70838;SDS011;58464;52.298;4.852;2022-07-09T05:41:23;8.68;;;4.47;;
70838;SDS011;58464;52.298;4.852;2022-07-09T05:43:50;10.15;;;4.57;;
70838;SDS011;58464;52.298;4.852;2022-07-09T05:46:19;9.77;;;5.43;;
70838;SDS011;58464;52.298;4.852;2022-07-09T05:48:46;6.15;;;3.70;;
70838;SDS011;58464;52.298;4.852;2022-07-09T05:51:11;10.73;;;4.97;;
70838;SDS011;58464;52.298;4.852;2022-07-09T05:53:37;11.82;;;5.80;;
70838;SDS011;58464;52.298;4.852;2022-07-09T05:56:02;8.23;;;5.85;;
70838;SDS011;58464;52.298;4.852;2022-07-09T05:58:29;14.43;;;7.38;;
70838;SDS011;58464;52.298;4.852;2022-07-09T06:00:54;13.65;;;5.65;;
70838;SDS011;58464;52.298;4.852;2022-07-09T06:03:19;11.75;;;6.45;;
70838;SDS011;58464;52.298;4.852;2022-07-09T06:05:45;10.45;;;6.75;;
70838;SDS011;58464;52.298;4.852;2022-07-09T06:08:10;9.98;;;5.60;;
70838;SDS011;58464;52.298;4.852;2022-07-09T06:10:35;10.10;;;6.30;;
70838;SDS011;58464;52.298;4.852;2022-07-09T06:13:01;9.60;;;6.10;;
70838;SDS011;58464;52.298;4.852;2022-07-09T06:15:27;13.90;;;6.18;;
70838;SDS011;58464;52.298;4.852;2022-07-09T06:17:52;13.05;;;5.55;;
70838;SDS011;58464;52.298;4.852;2022-07-09T06:20:18;10.68;;;5.40;;
70838;SDS011;58464;52.298;4.852;2022-07-09T06:22:43;9.25;;;4.32;;
70838;SDS011;58464;52.298;4.852;2022-07-09T06:25:09;11.95;;;4.85;;
70838;SDS011;58464;52.298;4.852;2022-07-09T06:27:34;7.07;;;4.03;;
70838;SDS011;58464;52.298;4.852;2022-07-09T06:30:00;11.65;;;4.97;;
70838;SDS011;58464;52.298;4.852;2022-07-09T06:32:26;5.10;;;3.95;;
70838;SDS011;58464;52.298;4.852;2022-07-09T06:34:51;7.05;;;4.28;;
70838;SDS011;58464;52.298;4.852;2022-07-09T06:37:17;14.02;;;4.22;;
70838;SDS011;58464;52.298;4.852;2022-07-09T06:39:42;8.63;;;4.68;;
70838;SDS011;58464;52.298;4.852;2022-07-09T06:42:11;9.60;;;3.58;;
70838;SDS011;58464;52.298;4.852;2022-07-09T06:44:38;6.25;;;3.13;;
70838;SDS011;58464;52.298;4.852;2022-07-09T06:47:04;8.95;;;3.15;;
70838;SDS011;58464;52.298;4.852;2022-07-09T06:49:30;5.70;;;2.80;;
70838;SDS011;58464;52.298;4.852;2022-07-09T06:51:56;4.22;;;2.15;;
70838;SDS011;58464;52.298;4.852;2022-07-09T06:54:21;6.80;;;2.20;;
70838;SDS011;58464;52.298;4.852;2022-07-09T06:56:47;5.63;;;2.25;;
70838;SDS011;58464;52.298;4.852;2022-07-09T06:59:12;3.13;;;1.75;;
70838;SDS011;58464;52.298;4.852;2022-07-09T07:01:38;7.22;;;2.38;;
70838;SDS011;58464;52.298;4.852;2022-07-09T07:04:04;1.73;;;1.15;;
70838;SDS011;58464;52.298;4.852;2022-07-09T07:06:29;2.03;;;1.35;;
70838;SDS011;58464;52.298;4.852;2022-07-09T07:08:55;5.47;;;1.75;;
70838;SDS011;58464;52.298;4.852;2022-07-09T07:11:20;2.38;;;0.82;;
70838;SDS011;58464;52.298;4.852;2022-07-09T07:13:46;3.28;;;1.45;;
70838;SDS011;58464;52.298;4.852;2022-07-09T07:16:11;5.05;;;2.03;;
70838;SDS011;58464;52.298;4.852;2022-07-09T07:18:36;5.03;;;1.30;;
70838;SDS011;58464;52.298;4.852;2022-07-09T07:21:02;3.92;;;2.15;;
70838;SDS011;58464;52.298;4.852;2022-07-09T07:23:27;6.13;;;1.40;;
70838;SDS011;58464;52.298;4.852;2022-07-09T07:25:56;5.30;;;2.05;;
70838;SDS011;58464;52.298;4.852;2022-07-09T07:28:25;4.20;;;1.00;;
70838;SDS011;58464;52.298;4.852;2022-07-09T07:30:50;4.43;;;1.63;;
70838;SDS011;58464;52.298;4.852;2022-07-09T07:33:16;2.47;;;0.60;;
70838;SDS011;58464;52.298;4.852;2022-07-09T07:35:43;1.60;;;1.05;;
70838;SDS011;58464;52.298;4.852;2022-07-09T07:38:09;3.80;;;0.80;;
70838;SDS011;58464;52.298;4.852;2022-07-09T07:40:35;4.13;;;1.38;;
70838;SDS011;58464;52.298;4.852;2022-07-09T07:43:01;1.65;;;0.80;;
70838;SDS011;58464;52.298;4.852;2022-07-09T07:45:27;2.10;;;0.90;;
70838;SDS011;58464;52.298;4.852;2022-07-09T07:47:53;2.28;;;1.17;;
70838;SDS011;58464;52.298;4.852;2022-07-09T07:50:19;4.07;;;1.20;;
70838;SDS011;58464;52.298;4.852;2022-07-09T07:52:45;2.28;;;0.85;;
70838;SDS011;58464;52.298;4.852;2022-07-09T07:55:11;3.55;;;0.90;;
70838;SDS011;58464;52.298;4.852;2022-07-09T07:57:36;2.17;;;1.02;;
70838;SDS011;58464;52.298;4.852;2022-07-09T08:00:02;1.63;;;0.80;;
70838;SDS011;58464;52.298;4.852;2022-07-09T08:02:29;7.38;;;1.30;;
70838;SDS011;58464;52.298;4.852;2022-07-09T08:04:55;3.10;;;1.00;;
70838;SDS011;58464;52.298;4.852;2022-07-09T08:07:21;5.45;;;1.42;;
70838;SDS011;58464;52.298;4.852;2022-07-09T08:09:46;1.98;;;0.90;;
70838;SDS011;58464;52.298;4.852;2022-07-09T08:12:12;7.25;;;1.60;;
70838;SDS011;58464;52.298;4.852;2022-07-09T08:14:37;4.88;;;1.13;;
70838;SDS011;58464;52.298;4.852;2022-07-09T08:17:05;6.10;;;1.73;;
70838;SDS011;58464;52.298;4.852;2022-07-09T08:19:31;4.15;;;1.30;;
70838;SDS011;58464;52.298;4.852;2022-07-09T08:21:57;2.78;;;1.00;;
70838;SDS011;58464;52.298;4.852;2022-07-09T08:24:22;5.53;;;1.55;;
70838;SDS011;58464;52.298;4.852;2022-07-09T08:26:48;7.75;;;1.95;;
70838;SDS011;58464;52.298;4.852;2022-07-09T08:29:13;4.05;;;1.17;;
70838;SDS011;58464;52.298;4.852;2022-07-09T08:31:39;2.88;;;1.00;;
70838;SDS011;58464;52.298;4.852;2022-07-09T08:34:04;1.65;;;0.90;;
70838;SDS011;58464;52.298;4.852;2022-07-09T08:36:29;2.78;;;1.30;;
70838;SDS011;58464;52.298;4.852;2022-07-09T08:38:55;9.65;;;3.08;;
70838;SDS011;58464;52.298;4.852;2022-07-09T08:41:21;7.88;;;1.23;;
70838;SDS011;58464;52.298;4.852;2022-07-09T08:43:49;8.30;;;1.83;;
70838;SDS011;58464;52.298;4.852;2022-07-09T08:46:16;3.90;;;0.93;;
70838;SDS011;58464;52.298;4.852;2022-07-09T08:48:46;15.02;;;5.13;;
70838;SDS011;58464;52.298;4.852;2022-07-09T08:51:13;10.48;;;2.10;;
70838;SDS011;58464;52.298;4.852;2022-07-09T08:53:42;4.72;;;1.42;;
70838;SDS011;58464;52.298;4.852;2022-07-09T08:56:09;8.00;;;1.67;;
70838;SDS011;58464;52.298;4.852;2022-07-09T08:58:35;2.72;;;1.00;;
70838;SDS011;58464;52.298;4.852;2022-07-09T09:01:02;3.67;;;1.23;;
70838;SDS011;58464;52.298;4.852;2022-07-09T09:03:29;2.08;;;0.77;;
70838;SDS011;58464;52.298;4.852;2022-07-09T09:06:08;10.13;;;1.58;;
70838;SDS011;58464;52.298;4.852;2022-07-09T09:08:39;3.88;;;0.80;;
70838;SDS011;58464;52.298;4.852;2022-07-09T09:11:06;2.38;;;0.85;;
70838;SDS011;58464;52.298;4.852;2022-07-09T09:13:36;3.20;;;1.10;;
70838;SDS011;58464;52.298;4.852;2022-07-09T09:16:06;1.85;;;0.90;;
70838;SDS011;58464;52.298;4.852;2022-07-09T09:18:35;5.63;;;1.10;;
70838;SDS011;58464;52.298;4.852;2022-07-09T09:21:05;10.13;;;1.30;;
70838;SDS011;58464;52.298;4.852;2022-07-09T09:23:45;2.95;;;1.05;;
70838;SDS011;58464;52.298;4.852;2022-07-09T09:26:11;0.93;;;0.63;;
70838;SDS011;58464;52.298;4.852;2022-07-09T09:28:48;1.42;;;0.57;;
70838;SDS011;58464;52.298;4.852;2022-07-09T09:31:49;3.35;;;0.93;;
70838;SDS011;58464;52.298;4.852;2022-07-09T09:34:10;3.42;;;1.40;;
70838;SDS011;58464;52.298;4.852;2022-07-09T09:36:39;2.80;;;0.75;;
70838;SDS011;58464;52.298;4.852;2022-07-09T09:39:15;2.25;;;0.38;;
70838;SDS011;58464;52.298;4.852;2022-07-09T09:41:54;3.70;;;1.60;;
70838;SDS011;58464;52.298;4.852;2022-07-09T09:44:22;5.35;;;0.75;;
70838;SDS011;58464;52.298;4.852;2022-07-09T09:46:50;7.57;;;0.77;;
70838;SDS011;58464;52.298;4.852;2022-07-09T09:49:16;1.02;;;0.38;;
70838;SDS011;58464;52.298;4.852;2022-07-09T09:54:34;2.53;;;0.70;;
70838;SDS011;58464;52.298;4.852;2022-07-09T09:57:08;3.40;;;0.85;;
70838;SDS011;58464;52.298;4.852;2022-07-09T09:59:38;6.83;;;1.03;;
70838;SDS011;58464;52.298;4.852;2022-07-09T10:02:05;0.90;;;0.50;;
70838;SDS011;58464;52.298;4.852;2022-07-09T10:04:43;1.73;;;0.57;;
70838;SDS011;58464;52.298;4.852;2022-07-09T10:07:15;4.22;;;0.70;;
70838;SDS011;58464;52.298;4.852;2022-07-09T10:09:51;8.13;;;0.80;;
70838;SDS011;58464;52.298;4.852;2022-07-09T10:12:33;1.35;;;0.70;;
70838;SDS011;58464;52.298;4.852;2022-07-09T10:15:01;1.60;;;1.00;;
70838;SDS011;58464;52.298;4.852;2022-07-09T10:17:38;2.75;;;0.80;;
70838;SDS011;58464;52.298;4.852;2022-07-09T10:20:06;11.68;;;1.90;;
70838;SDS011;58464;52.298;4.852;2022-07-09T10:25:05;2.30;;;1.10;;
70838;SDS011;58464;52.298;4.852;2022-07-09T10:27:41;6.45;;;1.63;;
70838;SDS011;58464;52.298;4.852;2022-07-09T10:30:08;3.60;;;0.90;;
70838;SDS011;58464;52.298;4.852;2022-07-09T10:32:46;3.13;;;0.90;;
70838;SDS011;58464;52.298;4.852;2022-07-09T10:35:26;2.13;;;0.75;;
70838;SDS011;58464;52.298;4.852;2022-07-09T10:37:53;3.00;;;1.20;;
70838;SDS011;58464;52.298;4.852;2022-07-09T10:40:20;4.50;;;1.00;;
70838;SDS011;58464;52.298;4.852;2022-07-09T10:43:02;7.70;;;1.98;;
70838;SDS011;58464;52.298;4.852;2022-07-09T10:45:28;6.32;;;1.55;;
70838;SDS011;58464;52.298;4.852;2022-07-09T10:48:15;6.53;;;1.35;;
70838;SDS011;58464;52.298;4.852;2022-07-09T10:50:44;8.02;;;2.47;;
70838;SDS011;58464;52.298;4.852;2022-07-09T10:53:13;9.52;;;1.85;;
70838;SDS011;58464;52.298;4.852;2022-07-09T10:55:42;4.28;;;1.83;;
70838;SDS011;58464;52.298;4.852;2022-07-09T10:58:16;9.20;;;2.65;;
70838;SDS011;58464;52.298;4.852;2022-07-09T11:00:42;5.85;;;1.30;;
70838;SDS011;58464;52.298;4.852;2022-07-09T11:03:09;7.75;;;1.95;;
70838;SDS011;58464;52.298;4.852;2022-07-09T11:05:43;3.70;;;1.48;;
70838;SDS011;58464;52.298;4.852;2022-07-09T11:08:09;8.77;;;2.47;;
70838;SDS011;58464;52.298;4.852;2022-07-09T11:10:37;6.85;;;2.20;;
70838;SDS011;58464;52.298;4.852;2022-07-09T11:13:04;4.05;;;1.15;;
70838;SDS011;58464;52.298;4.852;2022-07-09T11:15:33;8.23;;;2.58;;
70838;SDS011;58464;52.298;4.852;2022-07-09T11:18:00;9.23;;;1.17;;
70838;SDS011;58464;52.298;4.852;2022-07-09T11:23:10;11.10;;;1.33;;
70838;SDS011;58464;52.298;4.852;2022-07-09T11:25:36;4.72;;;1.02;;
70838;SDS011;58464;52.298;4.852;2022-07-09T11:28:02;2.88;;;1.02;;
70838;SDS011;58464;52.298;4.852;2022-07-09T11:30:28;3.03;;;0.82;;
70838;SDS011;58464;52.298;4.852;2022-07-09T11:32:54;2.55;;;0.90;;
70838;SDS011;58464;52.298;4.852;2022-07-09T11:35:30;4.43;;;1.48;;
70838;SDS011;58464;52.298;4.852;2022-07-09T11:38:00;5.00;;;1.65;;
70838;SDS011;58464;52.298;4.852;2022-07-09T11:40:29;4.00;;;1.40;;
70838;SDS011;58464;52.298;4.852;2022-07-09T11:42:55;4.80;;;1.52;;
70838;SDS011;58464;52.298;4.852;2022-07-09T11:45:29;5.22;;;1.60;;
70838;SDS011;58464;52.298;4.852;2022-07-09T11:48:07;9.88;;;1.80;;
70838;SDS011;58464;52.298;4.852;2022-07-09T11:50:44;7.88;;;2.13;;
70838;SDS011;58464;52.298;4.852;2022-07-09T11:53:20;4.75;;;1.08;;
70838;SDS011;58464;52.298;4.852;2022-07-09T11:55:56;8.38;;;1.83;;
70838;SDS011;58464;52.298;4.852;2022-07-09T11:58:26;7.78;;;1.67;;
70838;SDS011;58464;52.298;4.852;2022-07-09T12:00:52;4.75;;;1.15;;
70838;SDS011;58464;52.298;4.852;2022-07-09T12:03:24;5.60;;;1.27;;
70838;SDS011;58464;52.298;4.852;2022-07-09T12:05:51;3.73;;;1.00;;
70838;SDS011;58464;52.298;4.852;2022-07-09T12:08:25;4.43;;;1.35;;
70838;SDS011;58464;52.298;4.852;2022-07-09T12:10:53;2.30;;;0.63;;
70838;SDS011;58464;52.298;4.852;2022-07-09T12:13:19;4.57;;;1.48;;
70838;SDS011;58464;52.298;4.852;2022-07-09T12:15:44;3.22;;;1.15;;
70838;SDS011;58464;52.298;4.852;2022-07-09T12:18:09;4.68;;;2.13;;
70838;SDS011;58464;52.298;4.852;2022-07-09T12:20:35;1.83;;;0.70;;
70838;SDS011;58464;52.298;4.852;2022-07-09T12:23:00;6.55;;;2.00;;
70838;SDS011;58464;52.298;4.852;2022-07-09T12:25:27;6.95;;;1.60;;
70838;SDS011;58464;52.298;4.852;2022-07-09T12:27:52;1.98;;;0.95;;
70838;SDS011;58464;52.298;4.852;2022-07-09T12:30:18;1.70;;;1.00;;
70838;SDS011;58464;52.298;4.852;2022-07-09T12:32:44;8.85;;;0.88;;
70838;SDS011;58464;52.298;4.852;2022-07-09T12:35:12;2.20;;;1.23;;
70838;SDS011;58464;52.298;4.852;2022-07-09T12:37:38;4.95;;;1.40;;
70838;SDS011;58464;52.298;4.852;2022-07-09T12:40:04;3.38;;;0.88;;
70838;SDS011;58464;52.298;4.852;2022-07-09T12:42:31;6.03;;;1.35;;
70838;SDS011;58464;52.298;4.852;2022-07-09T12:44:57;6.47;;;1.17;;
70838;SDS011;58464;52.298;4.852;2022-07-09T12:47:23;3.42;;;1.13;;
70838;SDS011;58464;52.298;4.852;2022-07-09T12:49:51;6.75;;;1.65;;
70838;SDS011;58464;52.298;4.852;2022-07-09T12:52:20;10.07;;;2.33;;
70838;SDS011;58464;52.298;4.852;2022-07-09T12:54:45;9.80;;;1.75;;
70838;SDS011;58464;52.298;4.852;2022-07-09T12:57:11;9.93;;;1.90;;
70838;SDS011;58464;52.298;4.852;2022-07-09T12:59:36;10.13;;;2.08;;
70838;SDS011;58464;52.298;4.852;2022-07-09T13:02:02;8.27;;;1.63;;
70838;SDS011;58464;52.298;4.852;2022-07-09T13:04:29;7.88;;;2.47;;
70838;SDS011;58464;52.298;4.852;2022-07-09T13:06:55;10.30;;;1.80;;
70838;SDS011;58464;52.298;4.852;2022-07-09T13:09:20;10.27;;;2.70;;
70838;SDS011;58464;52.298;4.852;2022-07-09T13:11:46;5.82;;;1.67;;
70838;SDS011;58464;52.298;4.852;2022-07-09T13:14:13;4.65;;;1.38;;
70838;SDS011;58464;52.298;4.852;2022-07-09T13:16:38;11.75;;;1.25;;
70838;SDS011;58464;52.298;4.852;2022-07-09T13:19:04;7.90;;;1.77;;
70838;SDS011;58464;52.298;4.852;2022-07-09T13:21:29;8.65;;;1.30;;
70838;SDS011;58464;52.298;4.852;2022-07-09T13:23:56;9.20;;;2.22;;
70838;SDS011;58464;52.298;4.852;2022-07-09T13:26:22;3.08;;;0.93;;
70838;SDS011;58464;52.298;4.852;2022-07-09T13:28:47;4.47;;;1.10;;
70838;SDS011;58464;52.298;4.852;2022-07-09T13:31:13;5.28;;;1.48;;
70838;SDS011;58464;52.298;4.852;2022-07-09T13:33:38;7.63;;;1.15;;
70838;SDS011;58464;52.298;4.852;2022-07-09T13:36:04;2.60;;;0.95;;
70838;SDS011;58464;52.298;4.852;2022-07-09T13:38:31;5.22;;;2.47;;
70838;SDS011;58464;52.298;4.852;2022-07-09T13:41:02;3.45;;;1.10;;
70838;SDS011;58464;52.298;4.852;2022-07-09T13:43:28;2.03;;;0.80;;
70838;SDS011;58464;52.298;4.852;2022-07-09T13:45:57;5.72;;;1.23;;
70838;SDS011;58464;52.298;4.852;2022-07-09T13:48:25;3.30;;;1.52;;
70838;SDS011;58464;52.298;4.852;2022-07-09T13:50:51;7.32;;;1.00;;
70838;SDS011;58464;52.298;4.852;2022-07-09T13:53:17;2.47;;;1.33;;
70838;SDS011;58464;52.298;4.852;2022-07-09T13:55:43;2.95;;;0.80;;
70838;SDS011;58464;52.298;4.852;2022-07-09T13:58:09;6.65;;;1.50;;
70838;SDS011;58464;52.298;4.852;2022-07-09T14:00:34;5.57;;;1.10;;
70838;SDS011;58464;52.298;4.852;2022-07-09T14:02:59;3.95;;;1.05;;
70838;SDS011;58464;52.298;4.852;2022-07-09T14:05:25;5.38;;;1.02;;
70838;SDS011;58464;52.298;4.852;2022-07-09T14:07:50;4.00;;;1.20;;
70838;SDS011;58464;52.298;4.852;2022-07-09T14:10:16;2.50;;;1.02;;
70838;SDS011;58464;52.298;4.852;2022-07-09T14:12:41;4.07;;;1.23;;
70838;SDS011;58464;52.298;4.852;2022-07-09T14:15:07;4.97;;;1.00;;
70838;SDS011;58464;52.298;4.852;2022-07-09T14:17:34;2.80;;;1.30;;
70838;SDS011;58464;52.298;4.852;2022-07-09T14:19:59;3.63;;;0.95;;
70838;SDS011;58464;52.298;4.852;2022-07-09T14:22:25;4.85;;;1.73;;
70838;SDS011;58464;52.298;4.852;2022-07-09T14:24:50;1.42;;;0.93;;
70838;SDS011;58464;52.298;4.852;2022-07-09T14:27:16;2.20;;;0.80;;
70838;SDS011;58464;52.298;4.852;2022-07-09T14:29:42;2.47;;;0.98;;
70838;SDS011;58464;52.298;4.852;2022-07-09T14:32:08;3.90;;;1.00;;
70838;SDS011;58464;52.298;4.852;2022-07-09T14:34:34;5.10;;;1.15;;
70838;SDS011;58464;52.298;4.852;2022-07-09T14:36:59;6.22;;;1.25;;
70838;SDS011;58464;52.298;4.852;2022-07-09T14:39:24;4.35;;;1.23;;
70838;SDS011;58464;52.298;4.852;2022-07-09T14:41:50;6.03;;;1.10;;
70838;SDS011;58464;52.298;4.852;2022-07-09T14:44:16;7.97;;;1.65;;
70838;SDS011;58464;52.298;4.852;2022-07-09T14:46:43;6.30;;;1.73;;
70838;SDS011;58464;52.298;4.852;2022-07-09T14:49:08;3.42;;;0.85;;